createdAt,value
2022-10-04T00:00:42.954Z,97.23
2022-10-04T00:03:48.110Z,97.17
2022-10-04T00:06:54.902Z,97.23
2022-10-04T00:10:00.801Z,96.98
2022-10-04T00:13:05.755Z,96.21
2022-10-04T00:16:15.920Z,96.08
2022-10-04T00:19:37.741Z,96.73
2022-10-04T00:23:18.969Z,97.37
2022-10-04T00:27:10.945Z,97.77
2022-10-04T00:30:23.764Z,97.51
2022-10-04T00:33:37.653Z,97.58
2022-10-04T00:36:50.985Z,97.78
2022-10-04T00:40:06.982Z,97.33
2022-10-04T00:43:15.375Z,97.33
2022-10-04T00:46:24.099Z,97.73
2022-10-04T00:49:31.075Z,97.54
2022-10-04T00:52:36.325Z,97.70
2022-10-04T00:55:41.451Z,97.45
2022-10-04T00:59:02.190Z,97.59
2022-10-04T01:02:08.184Z,97.62
2022-10-04T01:05:16.252Z,97.42
2022-10-04T01:08:25.472Z,97.53
2022-10-04T01:11:29.873Z,97.89
2022-10-04T01:14:40.950Z,98.38
2022-10-04T01:18:09.325Z,97.16
2022-10-04T01:21:27.300Z,97.43
2022-10-04T01:24:35.232Z,97.57
2022-10-04T01:27:42.956Z,97.72
2022-10-04T01:30:45.851Z,97.82
2022-10-04T01:33:48.718Z,97.96
2022-10-04T01:36:54.347Z,97.69
2022-10-04T01:39:58.689Z,98.17
2022-10-04T01:43:04.462Z,97.21
2022-10-04T01:46:10.287Z,97.41
2022-10-04T01:49:17.501Z,97.83
2022-10-04T01:52:24.412Z,97.66
2022-10-04T01:55:30.950Z,97.34
2022-10-04T01:58:36.749Z,98.65
2022-10-04T02:01:42.120Z,98.38
2022-10-04T02:04:48.225Z,97.67
2022-10-04T02:07:51.400Z,98.49
2022-10-04T02:10:56.597Z,98.03
2022-10-04T02:14:00.451Z,97.67
2022-10-04T02:17:05.530Z,98.34
2022-10-04T02:20:12.674Z,97.11
2022-10-04T02:23:17.669Z,98.24
2022-10-04T02:26:22.053Z,98.01
2022-10-04T02:29:24.757Z,98.03
2022-10-04T02:32:45.228Z,98.58
2022-10-04T02:35:48.696Z,97.54
2022-10-04T02:38:55.510Z,97.57
2022-10-04T02:42:03.658Z,97.39
2022-10-04T02:45:13.355Z,97.95
2022-10-04T02:48:28.021Z,97.71
2022-10-04T02:51:34.701Z,98.23
2022-10-04T02:54:41.825Z,98.16
2022-10-04T02:57:46.168Z,98.54
2022-10-04T03:00:51.175Z,97.53
2022-10-04T03:03:56.045Z,97.67
2022-10-04T03:06:59.341Z,98.09
2022-10-04T03:10:02.495Z,99.04
2022-10-04T03:13:06.438Z,98.85
2022-10-04T03:16:09.439Z,98.54
2022-10-04T03:19:12.970Z,98.45
2022-10-04T03:22:15.925Z,98.41
2022-10-04T03:25:23.407Z,98.34
2022-10-04T03:28:28.556Z,98.02
2022-10-04T03:31:32.046Z,98.54
2022-10-04T03:34:36.645Z,98.29
2022-10-04T03:37:39.501Z,98.68
2022-10-04T03:40:46.163Z,98.49
2022-10-04T03:43:51.422Z,98.24
2022-10-04T03:46:54.094Z,98.00
2022-10-04T03:49:57.709Z,98.49
2022-10-04T03:53:03.466Z,98.12
2022-10-04T03:56:13.162Z,98.00
2022-10-04T03:59:21.433Z,98.21
2022-10-04T04:02:31.930Z,98.13
2022-10-04T04:05:38.695Z,98.26
2022-10-04T04:08:44.560Z,98.44
2022-10-04T04:11:49.470Z,98.52
2022-10-04T04:14:53.950Z,98.51
2022-10-04T04:17:56.921Z,98.48
2022-10-04T04:21:01.952Z,98.11
2022-10-04T04:24:10.282Z,98.15
2022-10-04T04:27:14.398Z,98.73
2022-10-04T04:30:19.314Z,97.99
2022-10-04T04:33:27.058Z,97.96
2022-10-04T04:36:31.505Z,98.40
2022-10-04T04:39:41.031Z,97.98
2022-10-04T04:42:45.582Z,98.13
2022-10-04T04:46:08.646Z,97.33
2022-10-04T04:49:15.210Z,97.92
2022-10-04T04:52:19.209Z,97.79
2022-10-04T04:55:24.415Z,97.49
2022-10-04T04:58:29.610Z,97.42
2022-10-04T05:01:36.291Z,97.43
2022-10-04T05:04:38.974Z,97.53
2022-10-04T05:07:42.185Z,97.22
2022-10-04T05:10:47.942Z,98.05
2022-10-04T05:13:53.724Z,98.48
2022-10-04T05:16:58.729Z,98.25
2022-10-04T05:20:02.803Z,98.17
2022-10-04T05:23:05.603Z,98.63
2022-10-04T05:26:12.135Z,97.88
2022-10-04T05:29:18.292Z,98.62
2022-10-04T05:32:29.898Z,98.32
2022-10-04T05:35:44.360Z,98.35
2022-10-04T05:38:51.877Z,98.44
2022-10-04T05:42:07.755Z,98.49
2022-10-04T05:45:16.385Z,98.78
2022-10-04T05:48:20.797Z,98.28
2022-10-04T05:51:25.841Z,98.32
2022-10-04T05:54:31.026Z,97.84
2022-10-04T05:57:39.821Z,98.01
2022-10-04T06:00:51.347Z,97.24
2022-10-04T06:04:09.526Z,96.92
2022-10-04T06:07:19.403Z,96.54
2022-10-04T06:10:45.351Z,96.26
2022-10-04T06:14:11.562Z,96.27
2022-10-04T06:17:41.300Z,96.44
2022-10-04T06:20:56.055Z,95.04
2022-10-04T06:24:02.105Z,94.64
2022-10-04T06:27:15.661Z,93.84
2022-10-04T06:30:20.696Z,94.23
2022-10-04T06:33:34.307Z,93.86
2022-10-04T06:36:52.727Z,94.19
2022-10-04T06:40:06.957Z,93.42
2022-10-04T06:43:24.009Z,92.62
2022-10-04T06:46:31.934Z,91.44
2022-10-04T06:49:43.385Z,91.29
2022-10-04T06:52:58.529Z,89.32
2022-10-04T06:56:11.319Z,89.01
2022-10-04T06:59:37.261Z,87.40
2022-10-04T07:02:43.268Z,86.09
2022-10-04T07:05:49.744Z,84.88
2022-10-04T07:08:56.165Z,85.45
2022-10-04T07:12:02.816Z,84.64
2022-10-04T07:15:11.117Z,83.97
2022-10-04T07:18:16.986Z,83.04
2022-10-04T07:21:20.132Z,81.33
2022-10-04T07:24:27.836Z,80.25
2022-10-04T07:27:34.340Z,79.53
2022-10-04T07:30:40.194Z,81.04
2022-10-04T07:33:45.830Z,80.00
2022-10-04T07:36:51.660Z,78.51
2022-10-04T07:40:00.442Z,77.45
2022-10-04T07:43:06.767Z,78.09
2022-10-04T07:46:20.557Z,75.86
2022-10-04T07:49:23.985Z,75.63
2022-10-04T07:52:49.627Z,75.86
2022-10-04T07:55:57.883Z,75.32
2022-10-04T07:59:09.556Z,74.42
2022-10-04T08:02:22.399Z,72.92
2022-10-04T08:05:30.371Z,72.79
2022-10-04T08:08:45.493Z,70.79
2022-10-04T08:11:54.574Z,71.48
2022-10-04T08:15:08.974Z,69.41
2022-10-04T08:18:30.432Z,66.60
2022-10-04T08:21:38.963Z,66.91
2022-10-04T08:24:53.737Z,67.39
2022-10-04T08:28:21.423Z,68.57
2022-10-04T08:31:32.984Z,67.73
2022-10-04T08:34:47.732Z,67.27
2022-10-04T08:38:04.207Z,66.42
2022-10-04T08:41:28.001Z,66.83
2022-10-04T08:45:00.716Z,66.84
2022-10-04T08:48:24.994Z,66.12
2022-10-04T08:52:06.409Z,65.69
2022-10-04T08:55:35.243Z,66.07
2022-10-04T08:59:16.989Z,66.37
2022-10-04T09:02:56.208Z,66.52
2022-10-04T09:06:13.854Z,65.92
2022-10-04T09:09:49.052Z,66.26
2022-10-04T09:13:04.699Z,66.59
2022-10-04T09:16:17.178Z,65.70
2022-10-04T09:19:21.822Z,65.47
2022-10-04T09:22:46.767Z,64.65
2022-10-04T09:25:53.812Z,63.24
2022-10-04T09:29:28.332Z,62.49
2022-10-04T09:33:00.474Z,59.33
2022-10-04T09:36:13.931Z,58.83
2022-10-04T09:39:42.598Z,56.66
2022-10-04T09:43:09.855Z,55.94
2022-10-04T09:46:29.408Z,54.51
2022-10-04T09:49:50.595Z,52.88
2022-10-04T09:53:00.263Z,52.80
2022-10-04T09:56:21.277Z,52.86
2022-10-04T09:59:50.576Z,52.75
2022-10-04T10:03:36.381Z,52.15
2022-10-04T10:07:01.807Z,51.60
2022-10-04T10:10:32.386Z,52.16
2022-10-04T10:14:18.299Z,53.39
2022-10-04T10:17:26.963Z,52.28
2022-10-04T10:20:42.241Z,53.86
2022-10-04T10:23:55.544Z,53.51
2022-10-04T10:27:10.724Z,54.68
2022-10-04T10:30:21.698Z,54.81
2022-10-04T10:33:38.111Z,54.11
2022-10-04T10:36:54.001Z,53.74
2022-10-04T10:40:08.293Z,52.21
2022-10-04T10:43:21.180Z,52.50
2022-10-04T10:46:38.963Z,53.71
2022-10-04T10:49:54.418Z,53.34
2022-10-04T10:53:15.932Z,52.74
2022-10-04T10:56:38.362Z,52.93
2022-10-04T11:00:14.944Z,51.73
2022-10-04T11:03:46.839Z,52.74
2022-10-04T11:07:27.480Z,53.05
2022-10-04T11:11:01.832Z,53.23
2022-10-04T11:14:40.858Z,52.97
2022-10-04T11:17:57.640Z,51.43
2022-10-04T11:21:51.598Z,50.56
2022-10-04T11:25:19.080Z,50.94
2022-10-04T11:28:24.324Z,50.64
2022-10-04T11:31:41.832Z,50.35
2022-10-04T11:35:41.706Z,50.54
2022-10-04T11:39:03.911Z,49.88
2022-10-04T11:42:18.685Z,49.66
2022-10-04T11:45:54.284Z,49.65
2022-10-04T11:49:08.286Z,49.13
2022-10-04T11:52:40.459Z,48.31
2022-10-04T11:56:06.300Z,48.71
2022-10-04T11:59:21.442Z,47.87
2022-10-04T12:02:49.048Z,47.82
2022-10-04T12:06:04.761Z,47.47
2022-10-04T12:09:15.473Z,46.27
2022-10-04T12:12:40.482Z,45.65
2022-10-04T12:15:49.376Z,45.29
2022-10-04T12:19:22.139Z,44.14
2022-10-04T12:22:50.906Z,44.21
2022-10-04T12:26:07.291Z,44.08
2022-10-04T12:29:27.708Z,44.28
2022-10-04T12:32:34.626Z,44.51
2022-10-04T12:35:58.005Z,44.79
2022-10-04T12:39:14.481Z,45.35
2022-10-04T12:42:29.252Z,46.08
2022-10-04T12:45:56.892Z,38.84
2022-10-04T12:49:16.793Z,26.25
2022-10-04T12:52:21.613Z,24.60
2022-10-04T12:55:45.756Z,20.54
2022-10-04T12:59:17.582Z,19.10
2022-10-04T13:02:32.617Z,19.43
2022-10-04T13:05:39.011Z,18.17
2022-10-04T13:08:54.564Z,18.75
2022-10-04T13:12:08.495Z,18.59
2022-10-04T13:15:23.757Z,17.60
2022-10-04T13:18:33.178Z,15.81
2022-10-04T13:22:08.328Z,15.28
2022-10-04T13:25:28.313Z,14.99
2022-10-04T13:28:36.097Z,14.83
2022-10-04T13:31:43.274Z,14.58
2022-10-04T13:34:53.370Z,14.61
2022-10-04T13:38:08.119Z,13.84
2022-10-04T13:41:20.693Z,14.22
2022-10-04T13:44:36.429Z,15.34
2022-10-04T13:47:49.154Z,14.71
2022-10-04T13:51:02.161Z,14.39
2022-10-04T13:54:31.090Z,14.04
2022-10-04T13:57:45.079Z,13.26
2022-10-04T14:01:03.300Z,12.52
2022-10-04T14:04:18.377Z,13.33
2022-10-04T14:08:03.403Z,14.10
2022-10-04T14:11:22.077Z,14.06
2022-10-04T14:15:04.442Z,14.14
2022-10-04T14:18:43.123Z,13.56
2022-10-04T14:22:21.765Z,13.69
2022-10-04T14:25:41.748Z,13.11
2022-10-04T14:29:15.042Z,13.59
2022-10-04T14:32:36.400Z,14.00
2022-10-04T14:35:44.932Z,14.53
2022-10-04T14:39:08.839Z,14.23
2022-10-04T14:42:25.229Z,12.57
2022-10-04T14:45:39.125Z,12.01
2022-10-04T14:48:51.039Z,12.84
2022-10-04T14:52:06.694Z,13.10
2022-10-04T14:55:15.618Z,12.81
2022-10-04T14:58:24.653Z,13.25
2022-10-04T15:01:28.389Z,14.04
2022-10-04T15:04:35.923Z,13.68
2022-10-04T15:07:39.606Z,14.79
2022-10-04T15:10:49.839Z,15.37
2022-10-04T15:13:56.049Z,15.52
2022-10-04T15:17:00.962Z,16.45
2022-10-04T15:20:08.207Z,15.91
2022-10-04T15:23:16.732Z,15.15
2022-10-04T15:27:04.954Z,15.27
2022-10-04T15:30:19.045Z,14.65
2022-10-04T15:33:28.498Z,14.94
2022-10-04T15:37:04.213Z,14.78
2022-10-04T15:40:40.818Z,14.55
2022-10-04T15:43:45.117Z,15.87
2022-10-04T15:46:52.514Z,15.68
2022-10-04T15:50:04.322Z,16.57
2022-10-04T15:53:20.272Z,17.76
2022-10-04T15:56:28.298Z,18.38
2022-10-04T15:59:43.464Z,22.74
2022-10-04T16:02:59.607Z,29.76
2022-10-04T16:06:05.894Z,36.40
2022-10-04T16:09:29.078Z,41.80
2022-10-04T16:12:33.274Z,44.95
2022-10-04T16:15:37.191Z,47.21
2022-10-04T16:18:46.973Z,48.96
2022-10-04T16:21:52.897Z,51.01
2022-10-04T16:24:57.664Z,51.76
2022-10-04T16:28:06.292Z,52.49
2022-10-04T16:31:36.806Z,53.18
2022-10-04T16:34:52.696Z,54.39
2022-10-04T16:37:59.271Z,56.04
2022-10-04T16:41:10.145Z,57.57
2022-10-04T16:44:29.886Z,59.57
2022-10-04T16:47:38.282Z,61.54
2022-10-04T16:51:19.214Z,62.34
2022-10-04T16:54:35.919Z,63.52
2022-10-04T16:57:39.100Z,63.65
2022-10-04T17:00:41.920Z,64.84
2022-10-04T17:03:52.963Z,65.86
2022-10-04T17:06:59.093Z,66.66
2022-10-04T17:10:18.946Z,67.20
2022-10-04T17:13:26.571Z,69.01
2022-10-04T17:16:34.634Z,69.93
2022-10-04T17:19:43.000Z,70.50
2022-10-04T17:22:54.165Z,71.70
2022-10-04T17:26:04.419Z,71.93
2022-10-04T17:29:21.799Z,72.02
2022-10-04T17:32:29.140Z,72.67
2022-10-04T17:36:02.007Z,73.51
2022-10-04T17:39:29.111Z,73.03
2022-10-04T17:42:37.470Z,73.59
2022-10-04T17:45:53.287Z,73.14
2022-10-04T17:49:17.068Z,73.45
2022-10-04T17:52:43.148Z,73.93
2022-10-04T17:55:48.874Z,74.74
2022-10-04T17:58:54.786Z,75.77
2022-10-04T18:02:02.699Z,76.24
2022-10-04T18:05:18.071Z,78.01
2022-10-04T18:08:35.722Z,78.47
2022-10-04T18:11:47.223Z,79.67
2022-10-04T18:14:59.501Z,81.14
2022-10-04T18:18:16.153Z,80.43
2022-10-04T18:21:27.337Z,80.74
2022-10-04T18:24:30.958Z,81.24
2022-10-04T18:27:49.967Z,81.09
2022-10-04T18:30:58.869Z,81.63
2022-10-04T18:34:08.612Z,81.47
2022-10-04T18:37:20.933Z,82.34
2022-10-04T18:40:25.248Z,82.09
2022-10-04T18:43:30.863Z,83.98
2022-10-04T18:46:40.067Z,83.54
2022-10-04T18:49:48.123Z,84.50
2022-10-04T18:52:58.185Z,85.09
2022-10-04T18:56:03.530Z,85.34
2022-10-04T18:59:34.767Z,85.75
2022-10-04T19:02:42.247Z,86.32
2022-10-04T19:05:52.202Z,86.68
2022-10-04T19:09:04.182Z,87.40
2022-10-04T19:12:12.386Z,87.30
2022-10-04T19:15:26.807Z,86.53
2022-10-04T19:18:40.199Z,86.37
2022-10-04T19:21:48.987Z,86.61
2022-10-04T19:25:18.181Z,87.16
2022-10-04T19:28:23.939Z,88.30
2022-10-04T19:31:33.846Z,88.77
2022-10-04T19:34:46.233Z,88.29
2022-10-04T19:37:56.677Z,88.98
2022-10-04T19:41:05.742Z,89.22
2022-10-04T19:44:19.423Z,90.03
2022-10-04T19:47:38.164Z,90.46
2022-10-04T19:50:45.378Z,90.62
2022-10-04T19:53:51.785Z,91.19
2022-10-04T19:56:55.531Z,91.64
2022-10-04T19:59:58.178Z,92.47
2022-10-04T20:03:02.420Z,92.05
2022-10-04T20:06:05.424Z,91.97
2022-10-04T20:09:26.460Z,92.17
2022-10-04T20:12:33.131Z,91.88
2022-10-04T20:15:47.589Z,91.21
2022-10-04T20:19:03.155Z,90.59
2022-10-04T20:22:30.779Z,90.97
2022-10-04T20:26:00.742Z,90.76
2022-10-04T20:29:03.824Z,90.10
2022-10-04T20:32:08.281Z,89.95
2022-10-04T20:35:14.998Z,89.17
2022-10-04T20:38:32.074Z,88.44
2022-10-04T20:42:25.095Z,89.36
2022-10-04T20:45:28.555Z,90.25
2022-10-04T20:48:33.006Z,91.36
2022-10-04T20:51:37.804Z,91.26
2022-10-04T20:54:40.454Z,90.84
2022-10-04T20:57:43.122Z,90.23
2022-10-04T21:00:52.787Z,89.82
2022-10-04T21:03:55.404Z,90.72
2022-10-04T21:07:01.279Z,90.78
2022-10-04T21:10:08.677Z,90.79
2022-10-04T21:13:41.918Z,91.21
2022-10-04T21:16:48.931Z,91.11
2022-10-04T21:19:52.132Z,91.69
2022-10-04T21:23:09.864Z,91.84
2022-10-04T21:26:22.584Z,91.21
2022-10-04T21:29:25.340Z,91.79
2022-10-04T21:32:28.840Z,91.90
2022-10-04T21:35:31.436Z,92.30
2022-10-04T21:38:35.517Z,92.74
2022-10-04T21:41:38.222Z,92.16
2022-10-04T21:44:40.896Z,92.81
2022-10-04T21:47:43.553Z,93.15
2022-10-04T21:50:46.227Z,93.18
2022-10-04T21:53:50.182Z,94.10
2022-10-04T21:56:53.901Z,94.24
2022-10-04T21:59:56.550Z,94.29
2022-10-04T22:02:59.316Z,94.57
2022-10-04T22:06:01.923Z,94.67
2022-10-04T22:09:06.436Z,95.10
2022-10-04T22:12:09.158Z,95.83
2022-10-04T22:15:11.782Z,96.11
2022-10-04T22:18:14.486Z,95.95
2022-10-04T22:21:17.222Z,95.58
2022-10-04T22:24:21.916Z,95.90
2022-10-04T22:27:24.669Z,96.19
2022-10-04T22:30:31.182Z,95.86
2022-10-04T22:33:35.502Z,95.71
2022-10-04T22:36:39.449Z,96.00
2022-10-04T22:39:43.468Z,96.02
2022-10-04T22:42:46.350Z,96.24
2022-10-04T22:45:49.112Z,96.73
2022-10-04T22:48:52.108Z,96.89
2022-10-04T22:51:56.991Z,96.75
2022-10-04T22:55:03.177Z,97.31
2022-10-04T22:58:05.801Z,96.81
2022-10-04T23:01:14.067Z,96.73
2022-10-04T23:04:22.057Z,96.70
2022-10-04T23:07:25.928Z,96.59
2022-10-04T23:10:29.863Z,97.41
2022-10-04T23:13:32.555Z,97.65
2022-10-04T23:16:35.248Z,97.48
2022-10-04T23:19:37.949Z,97.64
2022-10-04T23:22:41.086Z,98.05
2022-10-04T23:25:47.107Z,97.72
2022-10-04T23:28:49.799Z,96.86
2022-10-04T23:31:52.913Z,96.79
2022-10-04T23:34:57.023Z,96.87
2022-10-04T23:37:59.816Z,96.70
2022-10-04T23:41:03.982Z,96.78
2022-10-04T23:44:11.997Z,96.90
2022-10-04T23:47:16.752Z,97.72
2022-10-04T23:50:23.132Z,98.11
2022-10-04T23:53:28.989Z,98.60
2022-10-04T23:56:33.079Z,98.59
2022-10-04T23:59:35.835Z,97.96
